Location Norrisville, MD, US

ob CW6888 192000Z AUTO 28001G04KT CLR 30/21 A2989 RMK SLPNO 

2017.08.19 2000 UTC
Wind from the W (283 degrees) at 1.0 MPH (1 KT) gusting to 5.0 MPH (4 KT)
Visibility    Mile(s)
Sky Conditions  clear
Temperature 85.90 F (30 C)
Dew Point 70.42 F (21 C)
Relative Humidity 60%
Pressure   29.89 in. Hg (1012 hPa)
Rain  0.00 in.
Daily Rain  in.

Station Name  Sola Virtus Observatory
Longitude, Latitude  -76.5447, 39.7025
Elevation 738
Station URL http://sola-virtus-observatory.org
Software Type VWS V15.00